Terminal Aerodrome Forecast
Issued by NWS

Home | Current Version | Previous Version | Text Only | Print | Product List | Glossary On
Versions: 1 2 3 4 5 6 7 8 9 10 11 12 13 14 15 16 17 18
264
FTUS43 KAPX 261727
TAFPLN
TAF
KPLN 261727Z 2618/2718 14012KT P6SM BKN100
     FM262000 17013KT P6SM VCSH SCT040 BKN080
      TEMPO 2620/2622 3SM -SHRA OVC025
     FM262300 14008KT P6SM VCSH OVC045
     FM270300 15006KT 3SM BR VCSH BKN025
     FM270700 16007KT 3SM BR VCSH OVC025 WS015/17045KT
     FM270900 16006KT P6SM VCSH OVC050 WS015/17045KT
     FM271300 15008KT P6SM VCSH BKN050
     FM271600 18010G21KT P6SM VCSH BKN025=

USA.gov is the U.S. government's official web portal to all federal, state and local government web resources and services.